createdAt,value
2017-09-22T00:00:08.184Z,8.40
2017-09-22T00:02:36.288Z,8.60
2017-09-22T00:05:04.424Z,8.70
2017-09-22T00:07:32.509Z,8.70
2017-09-22T00:10:00.588Z,8.70
2017-09-22T00:12:28.670Z,8.70
2017-09-22T00:14:56.776Z,8.70
2017-09-22T00:17:25.616Z,8.70
2017-09-22T00:19:53.911Z,8.70
2017-09-22T00:22:22.194Z,8.60
2017-09-22T00:24:50.275Z,8.60
2017-09-22T00:27:19.138Z,8.60
2017-09-22T00:29:47.215Z,8.60
2017-09-22T00:32:15.299Z,8.70
2017-09-22T00:34:44.151Z,8.70
2017-09-22T00:37:12.251Z,8.70
2017-09-22T00:39:40.341Z,8.60
2017-09-22T00:42:08.427Z,8.50
2017-09-22T00:44:36.516Z,8.20
2017-09-22T00:47:04.613Z,8.00
2017-09-22T00:49:32.723Z,8.30
2017-09-22T00:52:01.581Z,8.50
2017-09-22T00:54:29.661Z,8.50
2017-09-22T00:56:57.735Z,8.50
2017-09-22T00:59:25.824Z,8.30
2017-09-22T01:01:54.676Z,8.20
2017-09-22T01:04:22.759Z,8.20
2017-09-22T01:06:50.843Z,8.20
2017-09-22T01:09:19.807Z,7.90
2017-09-22T01:11:47.883Z,7.90
2017-09-22T01:14:15.970Z,7.80
2017-09-22T01:16:44.058Z,7.90
2017-09-22T01:19:12.148Z,8.10
2017-09-22T01:21:40.223Z,8.10
2017-09-22T01:24:08.316Z,8.10
2017-09-22T01:26:36.400Z,8.00
2017-09-22T01:29:04.522Z,8.00
2017-09-22T01:31:32.617Z,8.00
2017-09-22T01:34:00.697Z,8.00
2017-09-22T01:36:28.803Z,8.10
2017-09-22T01:38:57.083Z,7.90
2017-09-22T01:41:25.163Z,7.90
2017-09-22T01:43:53.243Z,7.90
2017-09-22T01:46:21.369Z,7.80
2017-09-22T01:48:49.459Z,7.80
2017-09-22T01:51:17.545Z,7.70
2017-09-22T01:53:46.386Z,7.80
2017-09-22T01:56:14.579Z,7.70
2017-09-22T01:58:42.662Z,7.70
2017-09-22T02:01:10.747Z,7.70
2017-09-22T02:03:39.591Z,7.80
2017-09-22T02:06:07.667Z,7.80
2017-09-22T02:08:35.748Z,7.80
2017-09-22T02:11:03.834Z,7.80
2017-09-22T02:13:31.916Z,7.80
2017-09-22T02:16:00.770Z,7.80
2017-09-22T02:18:28.851Z,7.70
2017-09-22T02:20:56.940Z,7.70
2017-09-22T02:23:25.799Z,7.70
2017-09-22T02:25:53.883Z,7.80
2017-09-22T02:28:21.966Z,7.70
2017-09-22T02:30:50.807Z,7.60
2017-09-22T02:33:18.894Z,7.70
2017-09-22T02:35:46.971Z,7.60
2017-09-22T02:38:15.044Z,7.70
2017-09-22T02:40:43.130Z,7.70
2017-09-22T02:43:11.988Z,7.70
2017-09-22T02:45:40.076Z,7.70
2017-09-22T02:48:08.146Z,7.80
2017-09-22T02:50:37.817Z,7.70
2017-09-22T02:53:05.897Z,7.70
2017-09-22T02:55:33.992Z,7.70
2017-09-22T02:58:02.084Z,7.80
2017-09-22T03:00:30.349Z,7.80
2017-09-22T03:02:58.434Z,7.80
2017-09-22T03:05:26.685Z,7.80
2017-09-22T03:07:56.320Z,7.50
2017-09-22T03:10:25.175Z,7.70
2017-09-22T03:12:53.264Z,7.70
2017-09-22T03:15:22.251Z,7.80
2017-09-22T03:17:50.343Z,7.80
2017-09-22T03:20:18.472Z,7.70
2017-09-22T03:22:46.559Z,7.80
2017-09-22T03:25:14.733Z,7.80
2017-09-22T03:27:44.435Z,7.70
2017-09-22T03:30:12.540Z,7.70
2017-09-22T03:32:40.625Z,7.60
2017-09-22T03:35:08.727Z,7.60
2017-09-22T03:37:36.801Z,7.50
2017-09-22T03:40:04.996Z,7.50
2017-09-22T03:42:33.077Z,7.50
2017-09-22T03:45:01.220Z,7.40
2017-09-22T03:47:29.303Z,7.20
2017-09-22T03:49:57.378Z,7.30
2017-09-22T03:52:25.460Z,7.20
2017-09-22T03:54:54.309Z,7.10
2017-09-22T03:57:22.391Z,7.10
2017-09-22T03:59:50.522Z,7.20
2017-09-22T04:02:18.620Z,7.20
2017-09-22T04:04:46.710Z,7.30
2017-09-22T04:07:14.798Z,7.20
2017-09-22T04:09:43.652Z,7.00
2017-09-22T04:12:11.734Z,7.00
2017-09-22T04:14:39.818Z,7.00
2017-09-22T04:17:07.917Z,7.10
2017-09-22T04:19:35.989Z,7.30
2017-09-22T04:22:04.074Z,7.30
2017-09-22T04:24:32.155Z,7.30
2017-09-22T04:27:00.235Z,7.30
2017-09-22T04:29:28.382Z,7.40
2017-09-22T04:31:56.479Z,7.30
2017-09-22T04:34:24.568Z,7.30
2017-09-22T04:36:52.659Z,7.40
2017-09-22T04:39:21.513Z,7.20
2017-09-22T04:41:49.590Z,7.20
2017-09-22T04:44:17.676Z,7.30
2017-09-22T04:46:45.759Z,7.30
2017-09-22T04:49:14.606Z,7.20
2017-09-22T04:51:42.701Z,7.20
2017-09-22T04:54:10.780Z,7.20
2017-09-22T04:56:38.863Z,7.30
2017-09-22T04:59:07.724Z,7.20
2017-09-22T05:01:35.812Z,7.20
2017-09-22T05:04:03.892Z,7.30
2017-09-22T05:06:32.747Z,7.50
2017-09-22T05:09:00.835Z,7.40
2017-09-22T05:11:28.918Z,7.40
2017-09-22T05:13:57.772Z,7.40
2017-09-22T05:16:25.850Z,7.40
2017-09-22T05:18:53.942Z,7.40
2017-09-22T05:21:22.801Z,7.30
2017-09-22T05:23:50.886Z,7.30
2017-09-22T05:26:18.982Z,7.30
2017-09-22T05:28:47.837Z,7.10
2017-09-22T05:31:15.919Z,7.10
2017-09-22T05:33:44.008Z,7.00
2017-09-22T05:36:12.859Z,7.00
2017-09-22T05:38:40.945Z,7.00
2017-09-22T05:41:09.851Z,7.10
2017-09-22T05:43:38.703Z,7.30
2017-09-22T05:46:06.783Z,7.20
2017-09-22T05:48:34.884Z,7.30
2017-09-22T05:51:02.972Z,7.10
2017-09-22T05:53:31.050Z,7.40
2017-09-22T05:55:59.278Z,7.40
2017-09-22T05:58:28.872Z,8.10
2017-09-22T06:00:56.964Z,8.10
2017-09-22T06:03:25.149Z,8.40
2017-09-22T06:05:53.250Z,8.60
2017-09-22T06:08:21.348Z,8.80
2017-09-22T06:10:49.563Z,8.90
2017-09-22T06:13:18.407Z,9.00
2017-09-22T06:15:46.503Z,9.00
2017-09-22T06:18:14.582Z,9.00
2017-09-22T06:20:42.679Z,9.00
2017-09-22T06:23:10.750Z,9.00
2017-09-22T06:25:38.839Z,8.90
2017-09-22T06:28:06.930Z,9.00
2017-09-22T06:30:35.032Z,9.10
2017-09-22T06:33:03.112Z,9.10
2017-09-22T06:35:31.960Z,9.30
2017-09-22T06:38:00.042Z,9.30
2017-09-22T06:40:28.125Z,9.20
2017-09-22T06:42:56.213Z,9.20
2017-09-22T06:45:25.063Z,9.50
2017-09-22T06:47:53.150Z,9.50
2017-09-22T06:50:21.239Z,9.60
2017-09-22T06:52:50.090Z,9.70
2017-09-22T06:55:18.184Z,9.70
2017-09-22T06:57:46.275Z,9.80
2017-09-22T07:00:15.120Z,9.90
2017-09-22T07:02:43.218Z,9.90
2017-09-22T07:05:11.308Z,9.90
2017-09-22T07:07:40.177Z,9.60
2017-09-22T07:10:08.263Z,9.60
2017-09-22T07:12:37.153Z,9.60
2017-09-22T07:15:06.012Z,9.50
2017-09-22T07:17:34.099Z,9.50
2017-09-22T07:20:02.176Z,9.50
2017-09-22T07:22:31.044Z,9.80
2017-09-22T07:24:59.131Z,9.80
2017-09-22T07:27:28.001Z,9.90
2017-09-22T07:29:56.079Z,9.80
2017-09-22T07:32:24.172Z,10.00
2017-09-22T07:34:53.032Z,10.10
2017-09-22T07:37:21.131Z,10.10
2017-09-22T07:39:49.988Z,10.20
2017-09-22T07:42:18.075Z,10.20
2017-09-22T07:44:46.160Z,10.20
2017-09-22T07:47:15.016Z,10.10
2017-09-22T07:49:43.110Z,10.10
2017-09-22T07:52:11.976Z,10.40
2017-09-22T07:54:40.068Z,10.40
2017-09-22T07:57:08.928Z,10.60
2017-09-22T07:59:37.018Z,10.60
2017-09-22T08:02:05.114Z,10.60
2017-09-22T08:04:33.970Z,10.70
2017-09-22T08:07:02.063Z,10.70
2017-09-22T08:09:30.909Z,10.80
2017-09-22T08:11:58.995Z,10.70
2017-09-22T08:14:27.084Z,10.70
2017-09-22T08:16:55.935Z,10.70
2017-09-22T08:19:24.033Z,10.60
2017-09-22T08:21:52.118Z,10.70
2017-09-22T08:24:20.978Z,10.70
2017-09-22T08:26:49.063Z,10.70
2017-09-22T08:29:17.154Z,10.70
2017-09-22T08:31:46.008Z,10.70
2017-09-22T08:34:14.094Z,10.60
2017-09-22T08:36:42.200Z,10.70
2017-09-22T08:39:10.291Z,10.70
2017-09-22T08:41:39.162Z,10.60
2017-09-22T08:44:07.247Z,10.60
2017-09-22T08:46:35.358Z,10.70
2017-09-22T08:49:03.439Z,10.60
2017-09-22T08:51:32.298Z,10.70
2017-09-22T08:54:00.388Z,10.70
2017-09-22T08:56:28.489Z,10.80
2017-09-22T08:58:57.339Z,10.90
2017-09-22T09:01:25.451Z,10.80
2017-09-22T09:03:54.295Z,11.00
2017-09-22T09:06:22.393Z,11.00
2017-09-22T09:08:51.239Z,11.10
2017-09-22T09:11:19.339Z,11.10
2017-09-22T09:13:47.435Z,11.20
2017-09-22T09:16:16.293Z,11.30
2017-09-22T09:18:44.389Z,11.30
2017-09-22T09:21:13.247Z,11.40
2017-09-22T09:23:41.335Z,11.30
2017-09-22T09:26:09.427Z,11.50
2017-09-22T09:28:37.520Z,11.50
2017-09-22T09:31:05.611Z,11.70
2017-09-22T09:33:33.719Z,11.80
2017-09-22T09:36:01.806Z,11.90
2017-09-22T09:38:30.657Z,11.90
2017-09-22T09:40:58.751Z,11.90
2017-09-22T09:43:26.838Z,12.10
2017-09-22T09:45:54.929Z,12.20
2017-09-22T09:48:23.019Z,12.40
2017-09-22T09:50:51.116Z,12.50
2017-09-22T09:53:19.207Z,12.50
2017-09-22T09:55:48.065Z,12.40
2017-09-22T09:58:16.170Z,12.40
2017-09-22T10:00:45.005Z,12.60
2017-09-22T10:03:13.103Z,12.60
2017-09-22T10:05:41.195Z,12.80
2017-09-22T10:08:10.055Z,13.10
2017-09-22T10:10:38.147Z,13.10
2017-09-22T10:13:06.227Z,13.20
2017-09-22T10:15:35.088Z,13.60
2017-09-22T10:18:03.187Z,13.60
2017-09-22T10:20:31.276Z,13.90
2017-09-22T10:22:59.363Z,14.40
2017-09-22T10:25:27.467Z,14.90
2017-09-22T10:27:55.558Z,15.50
2017-09-22T10:30:24.422Z,16.40
2017-09-22T10:32:52.510Z,16.30
2017-09-22T10:35:20.599Z,16.60
2017-09-22T10:37:49.459Z,17.00
2017-09-22T10:40:17.547Z,16.90
2017-09-22T10:42:46.407Z,16.90
2017-09-22T10:45:14.503Z,16.90
2017-09-22T10:47:42.592Z,17.30
2017-09-22T10:50:11.448Z,19.60
2017-09-22T10:52:39.522Z,19.50
2017-09-22T10:55:07.618Z,20.40
2017-09-22T10:57:36.469Z,21.50
2017-09-22T11:00:04.556Z,21.50
2017-09-22T11:02:32.635Z,22.10
2017-09-22T11:05:00.747Z,22.70
2017-09-22T11:07:28.846Z,23.10
2017-09-22T11:09:56.936Z,24.20
2017-09-22T11:12:25.023Z,24.80
2017-09-22T11:14:53.877Z,24.10
2017-09-22T11:17:21.959Z,24.00
2017-09-22T11:19:50.052Z,23.80
2017-09-22T11:22:18.896Z,25.50
2017-09-22T11:24:46.990Z,25.40
2017-09-22T11:27:15.071Z,25.50
2017-09-22T11:29:43.156Z,26.60
2017-09-22T11:32:12.012Z,25.80
2017-09-22T11:34:40.101Z,25.80
2017-09-22T11:37:08.179Z,25.10
2017-09-22T11:39:37.029Z,26.20
2017-09-22T11:42:05.124Z,26.20
2017-09-22T11:44:33.216Z,26.70
2017-09-22T11:47:02.057Z,26.00
2017-09-22T11:49:30.130Z,26.00
2017-09-22T11:51:58.211Z,26.50
2017-09-22T11:54:26.291Z,27.40
2017-09-22T11:56:54.567Z,26.90
2017-09-22T11:59:22.636Z,27.40
2017-09-22T12:01:50.723Z,24.80
2017-09-22T12:04:19.568Z,24.90
2017-09-22T12:06:47.648Z,24.90
2017-09-22T12:09:15.734Z,23.50
2017-09-22T12:11:43.815Z,25.30
2017-09-22T12:14:11.907Z,26.10
2017-09-22T12:16:40.753Z,26.80
2017-09-22T12:19:08.827Z,26.80
2017-09-22T12:21:36.913Z,26.50
2017-09-22T12:24:04.983Z,26.30
2017-09-22T12:26:33.062Z,24.20
2017-09-22T12:29:01.915Z,24.60
2017-09-22T12:31:29.998Z,24.50
2017-09-22T12:33:58.078Z,24.50
2017-09-22T12:36:26.164Z,24.10
2017-09-22T12:38:55.011Z,22.80
2017-09-22T12:41:23.100Z,22.80
2017-09-22T12:43:51.172Z,22.60
2017-09-22T12:46:19.252Z,22.40
2017-09-22T12:48:47.320Z,22.00
2017-09-22T12:51:15.407Z,21.30
2017-09-22T12:53:43.499Z,22.20
2017-09-22T12:56:11.563Z,23.40
2017-09-22T12:58:39.647Z,23.40
2017-09-22T13:01:07.720Z,23.50
2017-09-22T13:03:35.807Z,23.90
2017-09-22T13:06:03.892Z,23.70
2017-09-22T13:08:31.977Z,24.40
2017-09-22T13:11:00.052Z,24.40
2017-09-22T13:13:28.137Z,23.30
2017-09-22T13:15:56.973Z,23.20
2017-09-22T13:18:25.064Z,23.20
2017-09-22T13:20:53.233Z,22.90
2017-09-22T13:23:21.324Z,22.70
2017-09-22T13:25:49.405Z,22.60
2017-09-22T13:28:18.246Z,21.30
2017-09-22T13:30:46.323Z,21.30
2017-09-22T13:33:14.403Z,20.70
2017-09-22T13:35:42.487Z,20.70
2017-09-22T13:38:10.580Z,20.20
2017-09-22T13:40:39.415Z,19.40
2017-09-22T13:43:07.536Z,19.40
2017-09-22T13:45:36.374Z,19.40
2017-09-22T13:48:04.461Z,19.40
2017-09-22T13:50:32.545Z,18.90
2017-09-22T13:53:00.623Z,18.50
2017-09-22T13:55:28.761Z,18.50
2017-09-22T13:57:56.841Z,18.60
2017-09-22T14:09:38.879Z,18.40
2017-09-22T14:28:39.845Z,18.90
2017-09-22T14:31:22.460Z,18.90
2017-09-22T14:34:22.589Z,18.60
2017-09-22T15:07:46.851Z,17.90
2017-09-22T15:10:15.017Z,17.80
2017-09-22T15:12:43.096Z,17.80
2017-09-22T15:15:11.175Z,17.70
2017-09-22T15:17:40.027Z,17.50
2017-09-22T15:20:08.129Z,17.50
2017-09-22T15:22:36.208Z,17.60
2017-09-22T15:25:05.060Z,17.60
2017-09-22T15:27:33.135Z,17.60
2017-09-22T15:30:01.227Z,17.50
2017-09-22T15:32:29.310Z,17.50
2017-09-22T15:34:58.171Z,17.50
2017-09-22T15:37:26.356Z,17.50
2017-09-22T15:39:54.448Z,17.50
2017-09-22T15:42:22.519Z,17.40
2017-09-22T15:44:50.600Z,17.30
2017-09-22T15:47:18.731Z,17.30
2017-09-22T15:49:46.825Z,17.40
2017-09-22T15:52:15.680Z,17.20
2017-09-22T15:54:43.770Z,17.20
2017-09-22T15:57:11.936Z,17.30
2017-09-22T15:59:40.027Z,17.30
2017-09-22T16:02:08.108Z,17.40
2017-09-22T16:04:36.192Z,17.30
2017-09-22T16:07:04.264Z,17.30
2017-09-22T16:09:32.386Z,17.10
2017-09-22T16:12:00.465Z,16.90
2017-09-22T16:14:28.632Z,16.80
2017-09-22T16:16:56.725Z,16.90
2017-09-22T16:19:24.811Z,16.80
2017-09-22T16:21:52.918Z,16.80
2017-09-22T16:24:21.012Z,16.70
2017-09-22T16:26:49.183Z,16.70
2017-09-22T16:29:17.279Z,16.50
2017-09-22T16:31:45.355Z,16.30
2017-09-22T16:34:13.451Z,16.20
2017-09-22T16:36:41.525Z,16.10
2017-09-22T16:39:09.599Z,15.80
2017-09-22T16:41:37.693Z,15.60
2017-09-22T16:44:05.888Z,15.40
2017-09-22T16:46:33.967Z,15.30
2017-09-22T16:49:02.228Z,15.20
2017-09-22T16:51:31.819Z,15.10
2017-09-22T16:53:59.899Z,15.10
2017-09-22T16:56:27.991Z,15.00
2017-09-22T16:58:56.844Z,14.60
2017-09-22T17:01:25.010Z,14.60
2017-09-22T17:03:53.110Z,14.50
2017-09-22T17:06:22.716Z,14.40
2017-09-22T17:08:50.803Z,14.40
2017-09-22T17:11:19.672Z,14.30
2017-09-22T17:13:47.853Z,14.30
2017-09-22T17:16:16.703Z,14.20
2017-09-22T17:18:44.795Z,14.20
2017-09-22T17:21:12.877Z,14.10
2017-09-22T17:23:40.954Z,14.00
2017-09-22T17:26:09.222Z,14.00
2017-09-22T17:28:37.303Z,13.90
2017-09-22T17:31:06.144Z,13.90
2017-09-22T17:33:34.219Z,13.90
2017-09-22T17:36:02.319Z,13.70
2017-09-22T17:38:30.415Z,13.70
2017-09-22T17:40:59.255Z,13.60
2017-09-22T17:43:27.382Z,13.50
2017-09-22T17:45:56.209Z,13.50
2017-09-22T17:48:24.292Z,13.50
2017-09-22T17:50:52.364Z,13.50
2017-09-22T17:53:20.447Z,13.40
2017-09-22T17:55:48.526Z,13.50
2017-09-22T17:58:16.599Z,13.50
2017-09-22T18:00:44.673Z,13.50
2017-09-22T18:03:12.923Z,13.50
2017-09-22T18:05:41.014Z,13.40
2017-09-22T18:08:09.095Z,13.30
2017-09-22T18:10:37.176Z,13.10
2017-09-22T18:13:05.288Z,13.10
2017-09-22T18:15:33.551Z,13.10
2017-09-22T18:18:01.610Z,13.10
2017-09-22T18:20:29.772Z,13.10
2017-09-22T18:22:58.381Z,13.20
2017-09-22T18:25:26.700Z,13.20
2017-09-22T18:27:55.692Z,13.30
2017-09-22T18:30:24.009Z,13.30
2017-09-22T18:32:52.142Z,13.20
2017-09-22T18:35:21.105Z,12.90
2017-09-22T18:37:49.452Z,12.90
2017-09-22T18:40:17.707Z,13.00
2017-09-22T18:42:46.043Z,13.00
2017-09-22T18:45:14.399Z,13.00
2017-09-22T18:47:42.629Z,12.90
2017-09-22T18:50:10.796Z,12.80
2017-09-22T18:52:39.048Z,12.90
2017-09-22T18:55:07.405Z,12.90
2017-09-22T18:57:35.731Z,12.90
2017-09-22T19:00:04.027Z,12.80
2017-09-22T19:02:32.439Z,12.70
2017-09-22T19:05:00.596Z,12.60
2017-09-22T19:07:28.969Z,12.40
2017-09-22T19:09:57.321Z,12.50
2017-09-22T19:12:26.264Z,12.50
2017-09-22T19:14:54.434Z,12.50
2017-09-22T19:17:22.629Z,12.40
2017-09-22T19:19:50.720Z,12.50
2017-09-22T19:22:19.018Z,12.60
2017-09-22T19:24:47.116Z,12.70
2017-09-22T19:27:16.195Z,12.80
2017-09-22T19:29:44.388Z,12.80
2017-09-22T19:32:12.943Z,12.80
2017-09-22T19:34:41.333Z,12.90
2017-09-22T19:37:09.536Z,12.90
2017-09-22T19:39:37.944Z,13.00
2017-09-22T19:42:06.217Z,12.90
2017-09-22T19:44:34.335Z,12.90
2017-09-22T19:47:02.746Z,13.00
2017-09-22T19:49:31.006Z,13.00
2017-09-22T19:51:59.103Z,13.10
2017-09-22T19:54:27.237Z,13.10
2017-09-22T19:56:56.108Z,13.20
2017-09-22T19:59:24.413Z,13.10
2017-09-22T20:01:53.453Z,12.90
2017-09-22T20:04:21.649Z,12.90
2017-09-22T20:06:49.922Z,12.90
2017-09-22T20:09:18.351Z,12.90
2017-09-22T20:11:46.726Z,12.70
2017-09-22T20:14:14.841Z,12.80
2017-09-22T20:16:42.955Z,12.70
2017-09-22T20:19:11.239Z,12.60
2017-09-22T20:21:39.403Z,12.60
2017-09-22T20:24:08.289Z,12.40
2017-09-22T20:26:37.879Z,12.40
2017-09-22T20:29:06.840Z,12.50
2017-09-22T20:31:34.936Z,12.40
2017-09-22T20:34:03.007Z,12.40
2017-09-22T20:36:31.100Z,12.60
2017-09-22T20:38:59.190Z,12.70
2017-09-22T20:41:27.287Z,12.70
2017-09-22T20:43:55.482Z,12.70
2017-09-22T20:46:24.379Z,12.70
2017-09-22T20:48:53.988Z,12.50
2017-09-22T20:51:23.709Z,12.40
2017-09-22T20:53:51.879Z,12.40
2017-09-22T20:56:20.755Z,12.10
2017-09-22T20:58:48.835Z,12.10
2017-09-22T21:01:17.386Z,12.00
2017-09-22T21:03:45.583Z,11.80
2017-09-22T21:06:13.752Z,11.70
2017-09-22T21:08:42.599Z,11.70
2017-09-22T21:11:10.689Z,11.70
2017-09-22T21:13:38.788Z,12.00
2017-09-22T21:16:07.651Z,12.10
2017-09-22T21:18:35.738Z,12.10
2017-09-22T21:21:03.915Z,12.00
2017-09-22T21:23:32.796Z,11.80
2017-09-22T21:26:00.883Z,11.90
2017-09-22T21:28:29.032Z,11.70
2017-09-22T21:30:57.123Z,11.60
2017-09-22T21:33:25.979Z,11.80
2017-09-22T21:35:54.082Z,11.80
2017-09-22T21:38:22.971Z,11.60
2017-09-22T21:40:51.827Z,11.40
2017-09-22T21:43:20.031Z,11.40
2017-09-22T21:45:48.124Z,11.30
2017-09-22T21:48:16.228Z,11.40
2017-09-22T21:50:44.448Z,11.50
2017-09-22T21:53:12.777Z,11.40
2017-09-22T21:55:40.865Z,11.20
2017-09-22T21:58:08.955Z,11.20
2017-09-22T22:00:37.048Z,11.00
2017-09-22T22:03:11.770Z,10.50
2017-09-22T22:05:39.845Z,10.40
2017-09-22T22:08:08.700Z,10.40
2017-09-22T22:10:36.992Z,10.40
2017-09-22T22:13:05.159Z,10.70
2017-09-22T22:15:33.356Z,10.80
2017-09-22T22:18:01.454Z,10.70
2017-09-22T22:20:29.555Z,10.90
2017-09-22T22:22:57.659Z,10.90
2017-09-22T22:25:26.511Z,10.80
2017-09-22T22:27:54.607Z,10.80
2017-09-22T22:30:22.793Z,10.60
2017-09-22T22:32:51.651Z,10.30
2017-09-22T22:35:19.752Z,10.30
2017-09-22T22:37:47.956Z,10.30
2017-09-22T22:40:16.072Z,10.30
2017-09-22T22:42:44.167Z,10.40
2017-09-22T22:45:13.024Z,10.50
2017-09-22T22:47:41.111Z,10.50
2017-09-22T22:50:09.201Z,10.60
2017-09-22T22:52:38.065Z,10.80
2017-09-22T22:55:06.161Z,10.80
2017-09-22T22:57:35.026Z,10.30
2017-09-22T23:00:03.103Z,10.30
2017-09-22T23:02:31.200Z,10.50
2017-09-22T23:04:59.289Z,10.70
2017-09-22T23:07:27.397Z,10.70
2017-09-22T23:09:55.604Z,10.70
2017-09-22T23:12:23.699Z,10.70
2017-09-22T23:14:51.800Z,10.70
2017-09-22T23:17:19.900Z,10.60
2017-09-22T23:19:48.000Z,10.40
2017-09-22T23:22:16.131Z,10.40
2017-09-22T23:24:44.237Z,10.40
2017-09-22T23:27:12.324Z,10.30
2017-09-22T23:29:40.428Z,10.40
2017-09-22T23:32:08.528Z,10.50
2017-09-22T23:34:36.626Z,10.50
2017-09-22T23:37:04.720Z,10.50
2017-09-22T23:39:32.831Z,10.60
2017-09-22T23:42:00.980Z,10.60
2017-09-22T23:44:29.184Z,10.60
2017-09-22T23:46:57.278Z,10.60
2017-09-22T23:49:25.380Z,10.50
2017-09-22T23:51:53.592Z,10.40
2017-09-22T23:54:21.679Z,10.30
2017-09-22T23:56:50.546Z,10.40
2017-09-22T23:59:20.156Z,10.30
